createdAt,value
2023-03-22T00:02:25.884Z,11.00
2023-03-22T00:04:55.561Z,11.00
2023-03-22T00:07:22.207Z,11.10
2023-03-22T00:09:53.795Z,11.00
2023-03-22T00:12:22.607Z,11.00
2023-03-22T00:14:49.468Z,11.00
2023-03-22T00:17:16.126Z,10.90
2023-03-22T00:19:45.228Z,11.00
2023-03-22T00:22:14.698Z,11.00
2023-03-22T00:24:41.325Z,10.90
2023-03-22T00:27:08.039Z,10.90
2023-03-22T00:29:34.679Z,11.00
2023-03-22T00:32:04.226Z,10.90
2023-03-22T00:34:34.638Z,10.90
2023-03-22T00:37:01.295Z,10.80
2023-03-22T00:39:28.028Z,10.80
2023-03-22T00:41:54.675Z,10.80
2023-03-22T00:44:21.444Z,10.70
2023-03-22T00:46:48.101Z,10.70
2023-03-22T00:49:17.118Z,10.70
2023-03-22T00:51:46.183Z,10.60
2023-03-22T00:54:16.925Z,10.50
2023-03-22T00:56:49.818Z,10.50
2023-03-22T00:59:16.933Z,10.40
2023-03-22T01:01:43.944Z,10.30
2023-03-22T01:04:15.315Z,10.40
2023-03-22T01:06:41.991Z,10.30
2023-03-22T01:09:14.841Z,10.20
2023-03-22T01:11:43.172Z,10.20
2023-03-22T01:14:10.018Z,10.20
2023-03-22T01:16:37.189Z,10.20
2023-03-22T01:19:08.481Z,10.20
2023-03-22T01:21:37.445Z,10.20
2023-03-22T01:24:06.744Z,10.30
2023-03-22T01:26:36.061Z,10.20
2023-03-22T01:29:02.760Z,10.20
2023-03-22T01:31:29.396Z,10.20
2023-03-22T01:33:58.215Z,10.10
2023-03-22T01:36:27.093Z,10.00
2023-03-22T01:38:56.077Z,9.90
2023-03-22T01:41:25.365Z,9.80
2023-03-22T01:44:19.142Z,9.80
2023-03-22T01:46:50.233Z,9.70
2023-03-22T01:49:23.912Z,9.70
2023-03-22T01:51:56.009Z,9.70
2023-03-22T01:54:32.417Z,9.80
2023-03-22T01:57:02.341Z,9.80
2023-03-22T01:59:30.689Z,9.80
2023-03-22T02:02:02.773Z,9.70
2023-03-22T02:04:34.370Z,9.60
2023-03-22T02:07:09.438Z,9.60
2023-03-22T02:09:42.227Z,9.50
2023-03-22T02:12:18.192Z,9.50
2023-03-22T02:15:17.425Z,9.40
2023-03-22T02:17:52.110Z,9.40
2023-03-22T02:20:21.695Z,9.40
2023-03-22T02:22:52.968Z,9.40
2023-03-22T02:25:46.331Z,9.40
2023-03-22T02:28:43.165Z,9.40
2023-03-22T02:31:17.117Z,9.40
2023-03-22T02:34:14.537Z,9.40
2023-03-22T02:36:58.220Z,9.30
2023-03-22T02:39:29.851Z,9.30
2023-03-22T02:41:59.472Z,9.30
2023-03-22T02:45:01.154Z,9.30
2023-03-22T02:47:34.293Z,9.30
2023-03-22T02:50:11.669Z,9.30
2023-03-22T02:52:41.780Z,9.30
2023-03-22T02:55:21.408Z,9.40
2023-03-22T02:58:01.733Z,9.50
2023-03-22T03:00:33.255Z,9.50
2023-03-22T03:03:11.323Z,9.50
2023-03-22T03:05:45.428Z,9.70
2023-03-22T03:08:17.468Z,9.80
2023-03-22T03:10:45.079Z,9.90
2023-03-22T03:13:19.332Z,9.90
2023-03-22T03:15:55.187Z,9.90
2023-03-22T03:18:35.048Z,9.90
2023-03-22T03:21:08.669Z,9.80
2023-03-22T03:23:45.916Z,9.80
2023-03-22T03:26:33.987Z,9.70
2023-03-22T03:29:08.965Z,9.60
2023-03-22T03:31:44.757Z,9.60
2023-03-22T03:34:34.813Z,9.50
2023-03-22T03:37:17.319Z,9.50
2023-03-22T03:39:51.545Z,9.40
2023-03-22T03:42:19.058Z,9.40
2023-03-22T03:44:45.875Z,9.40
2023-03-22T03:47:16.088Z,9.40
2023-03-22T03:49:42.771Z,9.40
2023-03-22T03:52:09.589Z,9.40
2023-03-22T03:54:38.770Z,9.30
2023-03-22T03:57:05.833Z,9.30
2023-03-22T03:59:34.646Z,9.30
2023-03-22T04:02:03.569Z,9.30
2023-03-22T04:04:30.256Z,9.10
2023-03-22T04:07:01.596Z,9.00
2023-03-22T04:09:31.203Z,8.90
2023-03-22T04:11:58.422Z,8.90
2023-03-22T04:14:28.317Z,8.90
2023-03-22T04:16:58.266Z,9.00
2023-03-22T04:19:30.873Z,8.90
2023-03-22T04:21:57.755Z,8.90
2023-03-22T04:24:24.397Z,8.90
2023-03-22T04:26:52.353Z,8.90
2023-03-22T04:29:19.058Z,8.80
2023-03-22T04:31:45.692Z,8.80
2023-03-22T04:34:14.723Z,8.80
2023-03-22T04:36:41.412Z,8.80
2023-03-22T04:39:12.215Z,8.80
2023-03-22T04:41:38.875Z,8.90
2023-03-22T04:44:08.101Z,8.80
2023-03-22T04:46:39.674Z,8.90
2023-03-22T04:49:06.740Z,8.80
2023-03-22T04:51:33.465Z,8.70
2023-03-22T04:54:02.327Z,8.70
2023-03-22T04:56:28.958Z,8.70
2023-03-22T04:58:57.866Z,8.80
2023-03-22T05:01:24.649Z,8.70
2023-03-22T05:03:53.687Z,8.70
2023-03-22T05:06:22.594Z,8.70
2023-03-22T05:08:49.208Z,8.80
2023-03-22T05:11:24.241Z,8.80
2023-03-22T05:13:50.888Z,8.70
2023-03-22T05:16:17.586Z,8.60
2023-03-22T05:18:45.466Z,8.50
2023-03-22T05:21:21.955Z,8.50
2023-03-22T05:23:52.274Z,8.50
2023-03-22T05:26:20.352Z,8.60
2023-03-22T05:28:47.088Z,8.70
2023-03-22T05:31:15.412Z,8.80
2023-03-22T05:33:46.579Z,9.00
2023-03-22T05:36:13.226Z,9.00
2023-03-22T05:38:39.941Z,9.10
2023-03-22T05:41:06.820Z,9.20
2023-03-22T05:43:33.572Z,9.30
2023-03-22T05:46:04.190Z,9.50
2023-03-22T05:48:30.862Z,9.50
2023-03-22T05:50:59.949Z,9.50
2023-03-22T05:53:26.648Z,9.50
2023-03-22T05:55:53.270Z,9.60
2023-03-22T05:58:20.064Z,9.70
2023-03-22T06:00:49.808Z,9.80
2023-03-22T06:03:18.909Z,9.90
2023-03-22T06:05:50.629Z,10.00
2023-03-22T06:08:17.434Z,10.10
2023-03-22T06:10:44.065Z,10.20
2023-03-22T06:13:10.838Z,10.20
2023-03-22T06:15:39.721Z,10.20
2023-03-22T06:18:06.590Z,10.30
2023-03-22T06:20:35.486Z,10.30
2023-03-22T06:23:04.717Z,10.40
2023-03-22T06:25:33.816Z,10.50
2023-03-22T06:28:00.771Z,10.60
2023-03-22T06:30:27.805Z,10.70
2023-03-22T06:32:54.939Z,10.70
2023-03-22T06:35:21.689Z,10.80
2023-03-22T06:37:48.339Z,10.90
2023-03-22T06:40:17.523Z,10.90
2023-03-22T06:42:44.149Z,11.00
2023-03-22T06:45:14.594Z,11.00
2023-03-22T06:47:41.416Z,11.10
2023-03-22T06:50:08.789Z,11.20
2023-03-22T06:52:35.834Z,11.20
2023-03-22T06:55:05.884Z,11.30
2023-03-22T06:57:32.625Z,11.30
2023-03-22T06:59:59.345Z,11.30
2023-03-22T07:02:28.291Z,11.40
2023-03-22T07:04:55.231Z,11.40
2023-03-22T07:07:21.897Z,11.50
2023-03-22T07:09:51.485Z,11.50
2023-03-22T07:12:18.680Z,11.50
2023-03-22T07:14:45.686Z,11.70
2023-03-22T07:17:14.795Z,11.80
2023-03-22T07:19:42.765Z,11.90
2023-03-22T07:22:12.060Z,12.10
2023-03-22T07:24:50.293Z,12.20
2023-03-22T07:27:22.790Z,12.30
2023-03-22T07:29:51.742Z,12.50
2023-03-22T07:32:20.984Z,12.60
2023-03-22T07:34:50.183Z,12.80
2023-03-22T07:37:19.001Z,12.80
2023-03-22T07:39:45.674Z,12.90
2023-03-22T07:42:14.595Z,13.00
2023-03-22T07:44:43.821Z,13.10
2023-03-22T07:47:10.692Z,12.90
2023-03-22T07:49:39.629Z,12.90
2023-03-22T07:52:09.528Z,12.80
2023-03-22T07:54:38.885Z,12.70
2023-03-22T07:57:06.675Z,12.80
2023-03-22T07:59:33.408Z,12.90
2023-03-22T08:02:00.118Z,13.00
2023-03-22T08:04:30.860Z,13.10
2023-03-22T08:07:00.013Z,13.20
2023-03-22T08:09:26.806Z,13.30
2023-03-22T08:11:53.562Z,13.40
2023-03-22T08:14:27.444Z,13.50
2023-03-22T08:17:00.668Z,13.60
2023-03-22T08:19:29.727Z,13.70
2023-03-22T08:21:56.375Z,13.70
2023-03-22T08:24:23.050Z,13.70
2023-03-22T08:26:49.815Z,13.70
2023-03-22T08:29:16.838Z,13.70
2023-03-22T08:31:43.569Z,13.80
2023-03-22T08:34:10.670Z,14.00
2023-03-22T08:36:38.227Z,14.20
2023-03-22T08:39:05.393Z,14.60
2023-03-22T08:41:32.058Z,14.80
2023-03-22T08:43:58.704Z,15.00
2023-03-22T08:46:25.598Z,15.20
2023-03-22T08:48:52.352Z,15.20
2023-03-22T08:51:22.427Z,15.10
2023-03-22T08:53:49.701Z,15.20
2023-03-22T08:56:20.120Z,15.20
2023-03-22T08:58:46.958Z,15.30
2023-03-22T09:01:17.552Z,15.20
2023-03-22T09:03:44.273Z,14.90
2023-03-22T09:06:16.200Z,14.70
2023-03-22T09:08:42.817Z,14.70
2023-03-22T09:11:10.606Z,14.50
2023-03-22T09:13:37.790Z,14.60
2023-03-22T09:16:09.435Z,14.70
2023-03-22T09:18:37.729Z,14.80
2023-03-22T09:21:07.140Z,14.80
2023-03-22T09:23:35.404Z,15.00
2023-03-22T09:26:06.384Z,15.10
2023-03-22T09:28:36.566Z,15.20
2023-03-22T09:31:06.784Z,15.10
2023-03-22T09:33:34.661Z,15.30
2023-03-22T09:36:06.851Z,15.70
2023-03-22T09:38:36.407Z,16.00
2023-03-22T09:41:27.910Z,16.10
2023-03-22T09:44:05.495Z,16.10
2023-03-22T09:46:46.340Z,16.20
2023-03-22T09:49:17.741Z,16.00
2023-03-22T09:51:50.480Z,15.80
2023-03-22T09:54:19.611Z,15.80
2023-03-22T09:56:52.197Z,15.70
2023-03-22T09:59:33.490Z,15.60
2023-03-22T10:02:14.455Z,15.40
2023-03-22T10:04:43.864Z,15.50
2023-03-22T10:07:27.453Z,15.30
2023-03-22T10:09:59.983Z,15.30
2023-03-22T10:12:28.760Z,15.30
2023-03-22T10:15:04.106Z,15.30
2023-03-22T10:17:31.606Z,15.20
2023-03-22T10:20:06.181Z,15.30
2023-03-22T10:22:40.688Z,15.40
2023-03-22T10:25:09.402Z,15.50
2023-03-22T10:27:37.172Z,15.40
2023-03-22T10:30:16.530Z,15.50
2023-03-22T10:32:58.172Z,15.60
2023-03-22T10:35:25.617Z,15.70
2023-03-22T10:37:54.104Z,15.70
2023-03-22T10:40:30.829Z,15.70
2023-03-22T10:43:03.389Z,15.80
2023-03-22T10:45:33.572Z,15.80
2023-03-22T10:48:08.044Z,15.80
2023-03-22T10:50:46.310Z,15.90
2023-03-22T10:53:34.812Z,15.90
2023-03-22T10:56:01.515Z,15.60
2023-03-22T10:58:35.338Z,15.50
2023-03-22T11:01:10.115Z,15.60
2023-03-22T11:03:37.161Z,15.70
2023-03-22T11:06:14.122Z,15.60
2023-03-22T11:08:40.792Z,15.60
2023-03-22T11:11:17.987Z,15.60
2023-03-22T11:13:50.856Z,15.50
2023-03-22T11:16:20.872Z,15.40
2023-03-22T11:18:47.877Z,15.20
2023-03-22T11:21:19.416Z,15.20
2023-03-22T11:23:56.201Z,15.40
2023-03-22T11:26:29.588Z,15.30
2023-03-22T11:29:18.012Z,15.30
2023-03-22T11:31:59.698Z,15.10
2023-03-22T11:34:33.640Z,15.10
2023-03-22T11:37:01.034Z,15.10
2023-03-22T11:39:29.635Z,15.00
2023-03-22T11:42:03.668Z,15.00
2023-03-22T11:44:34.767Z,14.90
2023-03-22T11:47:06.530Z,14.80
2023-03-22T11:49:49.647Z,14.80
2023-03-22T11:52:26.130Z,14.60
2023-03-22T11:54:54.175Z,14.60
2023-03-22T11:57:28.877Z,14.50
2023-03-22T12:00:21.515Z,14.70
2023-03-22T12:02:57.164Z,14.80
2023-03-22T12:05:27.425Z,14.80
2023-03-22T12:08:11.902Z,14.80
2023-03-22T12:10:42.033Z,14.80
2023-03-22T12:13:19.074Z,14.80
2023-03-22T12:15:51.917Z,14.70
2023-03-22T12:18:57.605Z,14.60
2023-03-22T12:21:27.382Z,14.50
2023-03-22T12:24:04.281Z,14.40
2023-03-22T12:26:33.580Z,14.40
2023-03-22T12:29:18.173Z,14.40
2023-03-22T12:31:51.530Z,14.40
2023-03-22T12:34:25.748Z,14.30
2023-03-22T12:36:56.857Z,14.30
2023-03-22T12:39:37.718Z,14.30
2023-03-22T12:42:21.880Z,14.30
2023-03-22T12:45:04.216Z,14.30
2023-03-22T12:47:52.477Z,14.30
2023-03-22T12:50:24.376Z,14.30
2023-03-22T12:52:57.035Z,14.40
2023-03-22T12:55:32.018Z,14.30
2023-03-22T12:57:59.259Z,14.40
2023-03-22T13:00:34.307Z,14.30
2023-03-22T13:03:08.621Z,14.10
2023-03-22T13:05:36.639Z,13.90
2023-03-22T13:08:05.470Z,13.70
2023-03-22T13:10:36.741Z,13.60
2023-03-22T13:13:15.383Z,13.70
2023-03-22T13:16:11.619Z,13.70
2023-03-22T13:18:38.320Z,13.80
2023-03-22T13:21:19.482Z,13.90
2023-03-22T13:24:09.904Z,13.90
2023-03-22T13:26:45.949Z,14.00
2023-03-22T13:29:27.227Z,14.00
2023-03-22T13:31:58.347Z,13.90
2023-03-22T13:34:44.148Z,14.00
2023-03-22T13:37:25.296Z,14.20
2023-03-22T13:39:54.334Z,14.20
2023-03-22T13:42:30.800Z,14.20
2023-03-22T13:45:03.791Z,14.20
2023-03-22T13:47:37.182Z,14.30
2023-03-22T13:50:12.219Z,14.40
2023-03-22T13:52:46.202Z,14.40
2023-03-22T13:55:43.000Z,14.40
2023-03-22T13:58:35.981Z,14.40
2023-03-22T14:01:23.090Z,14.30
2023-03-22T14:03:52.636Z,14.20
2023-03-22T14:06:24.750Z,14.20
2023-03-22T14:09:01.935Z,14.10
2023-03-22T14:11:37.979Z,14.10
2023-03-22T14:14:15.696Z,14.00
2023-03-22T14:16:49.267Z,14.00
2023-03-22T14:19:23.273Z,14.00
